sensor_id;sensor_type;location;lat;lon;timestamp;P1;durP1;ratioP1;P2;durP2;ratioP2
21780;SDS011;52576;53.614;9.894;2023-05-10T00:01:36;9.10;;;3.58;;
21780;SDS011;52576;53.614;9.894;2023-05-10T00:03:39;11.82;;;3.13;;
21780;SDS011;52576;53.614;9.894;2023-05-10T00:05:43;9.48;;;3.10;;
21780;SDS011;52576;53.614;9.894;2023-05-10T00:07:47;5.22;;;3.05;;
21780;SDS011;52576;53.614;9.894;2023-05-10T00:09:50;6.72;;;3.30;;
21780;SDS011;52576;53.614;9.894;2023-05-10T00:11:54;5.72;;;3.47;;
21780;SDS011;52576;53.614;9.894;2023-05-10T00:13:59;7.50;;;3.30;;
21780;SDS011;52576;53.614;9.894;2023-05-10T00:16:03;6.15;;;3.13;;
21780;SDS011;52576;53.614;9.894;2023-05-10T00:18:06;6.78;;;3.17;;
21780;SDS011;52576;53.614;9.894;2023-05-10T00:20:10;7.95;;;3.20;;
21780;SDS011;52576;53.614;9.894;2023-05-10T00:22:14;5.70;;;3.20;;
21780;SDS011;52576;53.614;9.894;2023-05-10T00:24:18;8.48;;;3.20;;
21780;SDS011;52576;53.614;9.894;2023-05-10T00:26:22;6.55;;;3.30;;
21780;SDS011;52576;53.614;9.894;2023-05-10T00:28:28;10.80;;;3.63;;
21780;SDS011;52576;53.614;9.894;2023-05-10T00:30:31;7.55;;;3.28;;
21780;SDS011;52576;53.614;9.894;2023-05-10T00:32:35;9.38;;;3.22;;
21780;SDS011;52576;53.614;9.894;2023-05-10T00:34:39;7.22;;;3.50;;
21780;SDS011;52576;53.614;9.894;2023-05-10T00:36:42;7.55;;;3.30;;
21780;SDS011;52576;53.614;9.894;2023-05-10T00:38:45;6.97;;;3.80;;
21780;SDS011;52576;53.614;9.894;2023-05-10T00:40:50;6.82;;;3.38;;
21780;SDS011;52576;53.614;9.894;2023-05-10T00:45:03;5.30;;;3.40;;
21780;SDS011;52576;53.614;9.894;2023-05-10T00:47:07;6.00;;;3.38;;
21780;SDS011;52576;53.614;9.894;2023-05-10T00:49:11;10.98;;;3.78;;
21780;SDS011;52576;53.614;9.894;2023-05-10T00:51:15;6.20;;;3.20;;
21780;SDS011;52576;53.614;9.894;2023-05-10T00:53:18;5.32;;;3.40;;
21780;SDS011;52576;53.614;9.894;2023-05-10T00:55:21;6.97;;;3.70;;
21780;SDS011;52576;53.614;9.894;2023-05-10T00:57:26;8.85;;;3.55;;
21780;SDS011;52576;53.614;9.894;2023-05-10T00:59:30;6.72;;;3.45;;
21780;SDS011;52576;53.614;9.894;2023-05-10T01:01:33;6.15;;;3.10;;
21780;SDS011;52576;53.614;9.894;2023-05-10T01:03:37;9.98;;;3.17;;
21780;SDS011;52576;53.614;9.894;2023-05-10T01:05:42;6.32;;;3.35;;
21780;SDS011;52576;53.614;9.894;2023-05-10T01:07:45;7.85;;;3.20;;
21780;SDS011;52576;53.614;9.894;2023-05-10T01:09:49;5.40;;;3.38;;
21780;SDS011;52576;53.614;9.894;2023-05-10T01:11:53;7.60;;;3.30;;
21780;SDS011;52576;53.614;9.894;2023-05-10T01:13:58;9.57;;;3.40;;
21780;SDS011;52576;53.614;9.894;2023-05-10T01:16:02;6.25;;;3.40;;
21780;SDS011;52576;53.614;9.894;2023-05-10T01:18:06;6.03;;;3.40;;
21780;SDS011;52576;53.614;9.894;2023-05-10T01:20:12;8.50;;;3.90;;
21780;SDS011;52576;53.614;9.894;2023-05-10T01:22:22;5.60;;;3.63;;
21780;SDS011;52576;53.614;9.894;2023-05-10T01:24:52;6.95;;;3.50;;
21780;SDS011;52576;53.614;9.894;2023-05-10T01:33:08;9.88;;;3.92;;
21780;SDS011;52576;53.614;9.894;2023-05-10T01:35:15;8.98;;;3.85;;
21780;SDS011;52576;53.614;9.894;2023-05-10T01:37:26;7.85;;;3.63;;
21780;SDS011;52576;53.614;9.894;2023-05-10T01:39:36;7.22;;;3.80;;
21780;SDS011;52576;53.614;9.894;2023-05-10T01:41:48;5.43;;;3.55;;
21780;SDS011;52576;53.614;9.894;2023-05-10T01:43:55;8.25;;;3.92;;
21780;SDS011;52576;53.614;9.894;2023-05-10T01:46:05;7.50;;;3.53;;
21780;SDS011;52576;53.614;9.894;2023-05-10T01:48:14;7.93;;;3.38;;
21780;SDS011;52576;53.614;9.894;2023-05-10T01:50:19;11.40;;;3.72;;
21780;SDS011;52576;53.614;9.894;2023-05-10T01:52:30;7.10;;;3.58;;
21780;SDS011;52576;53.614;9.894;2023-05-10T01:54:36;6.25;;;3.72;;
21780;SDS011;52576;53.614;9.894;2023-05-10T01:56:44;5.13;;;3.63;;
21780;SDS011;52576;53.614;9.894;2023-05-10T01:58:50;5.88;;;3.75;;
21780;SDS011;52576;53.614;9.894;2023-05-10T02:00:55;7.55;;;3.47;;
21780;SDS011;52576;53.614;9.894;2023-05-10T02:03:04;6.72;;;3.30;;
21780;SDS011;52576;53.614;9.894;2023-05-10T02:05:13;9.73;;;3.50;;
21780;SDS011;52576;53.614;9.894;2023-05-10T02:07:18;7.78;;;3.80;;
21780;SDS011;52576;53.614;9.894;2023-05-10T02:09:22;6.95;;;3.83;;
21780;SDS011;52576;53.614;9.894;2023-05-10T02:11:28;6.90;;;3.58;;
21780;SDS011;52576;53.614;9.894;2023-05-10T02:13:34;6.57;;;3.35;;
21780;SDS011;52576;53.614;9.894;2023-05-10T02:15:40;8.02;;;3.78;;
21780;SDS011;52576;53.614;9.894;2023-05-10T02:17:46;9.85;;;3.67;;
21780;SDS011;52576;53.614;9.894;2023-05-10T02:19:50;6.57;;;3.63;;
21780;SDS011;52576;53.614;9.894;2023-05-10T02:21:56;8.82;;;3.75;;
21780;SDS011;52576;53.614;9.894;2023-05-10T02:24:02;6.28;;;3.72;;
21780;SDS011;52576;53.614;9.894;2023-05-10T02:26:06;8.60;;;4.18;;
21780;SDS011;52576;53.614;9.894;2023-05-10T02:28:11;6.28;;;3.80;;
21780;SDS011;52576;53.614;9.894;2023-05-10T02:30:15;7.32;;;3.70;;
21780;SDS011;52576;53.614;9.894;2023-05-10T02:32:20;7.13;;;3.58;;
21780;SDS011;52576;53.614;9.894;2023-05-10T02:34:25;6.05;;;3.63;;
21780;SDS011;52576;53.614;9.894;2023-05-10T02:36:30;6.13;;;3.67;;
21780;SDS011;52576;53.614;9.894;2023-05-10T02:38:34;6.38;;;3.47;;
21780;SDS011;52576;53.614;9.894;2023-05-10T02:40:39;5.53;;;3.60;;
21780;SDS011;52576;53.614;9.894;2023-05-10T02:42:44;7.32;;;3.92;;
21780;SDS011;52576;53.614;9.894;2023-05-10T02:44:50;10.55;;;4.25;;
21780;SDS011;52576;53.614;9.894;2023-05-10T02:46:56;6.25;;;3.83;;
21780;SDS011;52576;53.614;9.894;2023-05-10T02:49:00;6.57;;;3.63;;
21780;SDS011;52576;53.614;9.894;2023-05-10T02:51:05;6.82;;;3.80;;
21780;SDS011;52576;53.614;9.894;2023-05-10T02:53:10;5.53;;;3.60;;
21780;SDS011;52576;53.614;9.894;2023-05-10T02:55:21;8.35;;;4.47;;
21780;SDS011;52576;53.614;9.894;2023-05-10T02:57:28;5.85;;;4.05;;
21780;SDS011;52576;53.614;9.894;2023-05-10T02:59:35;5.75;;;4.00;;
21780;SDS011;52576;53.614;9.894;2023-05-10T03:01:39;6.38;;;3.80;;
21780;SDS011;52576;53.614;9.894;2023-05-10T03:03:42;11.65;;;3.85;;
21780;SDS011;52576;53.614;9.894;2023-05-10T03:05:45;7.72;;;4.07;;
21780;SDS011;52576;53.614;9.894;2023-05-10T03:07:48;6.50;;;3.92;;
21780;SDS011;52576;53.614;9.894;2023-05-10T03:09:53;6.32;;;3.50;;
21780;SDS011;52576;53.614;9.894;2023-05-10T03:12:00;8.98;;;3.97;;
21780;SDS011;52576;53.614;9.894;2023-05-10T03:14:13;9.32;;;3.58;;
21780;SDS011;52576;53.614;9.894;2023-05-10T03:16:25;5.70;;;3.30;;
21780;SDS011;52576;53.614;9.894;2023-05-10T03:18:33;7.18;;;4.00;;
21780;SDS011;52576;53.614;9.894;2023-05-10T03:20:46;5.90;;;3.40;;
21780;SDS011;52576;53.614;9.894;2023-05-10T03:22:52;10.70;;;4.30;;
21780;SDS011;52576;53.614;9.894;2023-05-10T03:24:58;11.07;;;4.00;;
21780;SDS011;52576;53.614;9.894;2023-05-10T03:27:09;5.90;;;3.58;;
21780;SDS011;52576;53.614;9.894;2023-05-10T03:29:13;8.10;;;4.00;;
21780;SDS011;52576;53.614;9.894;2023-05-10T03:31:18;9.80;;;3.80;;
21780;SDS011;52576;53.614;9.894;2023-05-10T03:33:21;7.25;;;4.00;;
21780;SDS011;52576;53.614;9.894;2023-05-10T03:35:25;8.18;;;3.67;;
21780;SDS011;52576;53.614;9.894;2023-05-10T03:37:29;10.52;;;4.25;;
21780;SDS011;52576;53.614;9.894;2023-05-10T03:39:32;5.10;;;3.55;;
21780;SDS011;52576;53.614;9.894;2023-05-10T03:41:36;5.57;;;3.83;;
21780;SDS011;52576;53.614;9.894;2023-05-10T03:43:41;9.43;;;3.78;;
21780;SDS011;52576;53.614;9.894;2023-05-10T03:45:44;7.47;;;3.65;;
21780;SDS011;52576;53.614;9.894;2023-05-10T03:47:48;6.63;;;3.95;;
21780;SDS011;52576;53.614;9.894;2023-05-10T03:49:51;8.27;;;4.00;;
21780;SDS011;52576;53.614;9.894;2023-05-10T03:51:54;8.85;;;3.72;;
21780;SDS011;52576;53.614;9.894;2023-05-10T03:53:58;11.15;;;3.60;;
21780;SDS011;52576;53.614;9.894;2023-05-10T03:56:01;8.07;;;3.70;;
21780;SDS011;52576;53.614;9.894;2023-05-10T03:58:05;8.07;;;4.10;;
21780;SDS011;52576;53.614;9.894;2023-05-10T04:00:10;6.88;;;3.90;;
21780;SDS011;52576;53.614;9.894;2023-05-10T04:02:17;10.73;;;4.00;;
21780;SDS011;52576;53.614;9.894;2023-05-10T04:04:20;5.35;;;3.50;;
21780;SDS011;52576;53.614;9.894;2023-05-10T04:06:24;8.88;;;3.88;;
21780;SDS011;52576;53.614;9.894;2023-05-10T04:08:28;9.27;;;3.67;;
21780;SDS011;52576;53.614;9.894;2023-05-10T04:10:32;7.25;;;3.88;;
21780;SDS011;52576;53.614;9.894;2023-05-10T04:12:35;6.45;;;4.07;;
21780;SDS011;52576;53.614;9.894;2023-05-10T04:14:38;9.75;;;3.70;;
21780;SDS011;52576;53.614;9.894;2023-05-10T04:16:43;6.95;;;4.20;;
21780;SDS011;52576;53.614;9.894;2023-05-10T04:18:47;7.38;;;4.28;;
21780;SDS011;52576;53.614;9.894;2023-05-10T04:20:50;5.05;;;3.90;;
21780;SDS011;52576;53.614;9.894;2023-05-10T04:22:54;8.13;;;4.15;;
21780;SDS011;52576;53.614;9.894;2023-05-10T04:24:57;7.95;;;4.30;;
21780;SDS011;52576;53.614;9.894;2023-05-10T04:27:00;12.43;;;4.00;;
21780;SDS011;52576;53.614;9.894;2023-05-10T04:29:03;8.88;;;4.13;;
21780;SDS011;52576;53.614;9.894;2023-05-10T04:31:08;9.30;;;3.70;;
21780;SDS011;52576;53.614;9.894;2023-05-10T04:33:13;6.30;;;3.60;;
21780;SDS011;52576;53.614;9.894;2023-05-10T04:35:17;8.80;;;4.03;;
21780;SDS011;52576;53.614;9.894;2023-05-10T04:37:20;7.03;;;3.83;;
21780;SDS011;52576;53.614;9.894;2023-05-10T04:39:24;9.02;;;4.03;;
21780;SDS011;52576;53.614;9.894;2023-05-10T04:41:27;6.00;;;3.78;;
21780;SDS011;52576;53.614;9.894;2023-05-10T04:43:31;13.48;;;4.57;;
21780;SDS011;52576;53.614;9.894;2023-05-10T04:45:34;9.00;;;4.20;;
21780;SDS011;52576;53.614;9.894;2023-05-10T04:47:37;9.98;;;4.07;;
21780;SDS011;52576;53.614;9.894;2023-05-10T04:49:42;8.80;;;4.15;;
21780;SDS011;52576;53.614;9.894;2023-05-10T04:51:45;9.40;;;4.30;;
21780;SDS011;52576;53.614;9.894;2023-05-10T04:53:49;10.02;;;3.80;;
21780;SDS011;52576;53.614;9.894;2023-05-10T04:56:06;11.43;;;4.18;;
21780;SDS011;52576;53.614;9.894;2023-05-10T04:58:10;5.32;;;3.90;;
21780;SDS011;52576;53.614;9.894;2023-05-10T05:00:13;7.72;;;3.72;;
21780;SDS011;52576;53.614;9.894;2023-05-10T05:02:18;11.63;;;4.60;;
21780;SDS011;52576;53.614;9.894;2023-05-10T05:04:21;6.53;;;4.10;;
21780;SDS011;52576;53.614;9.894;2023-05-10T05:06:27;8.25;;;4.20;;
21780;SDS011;52576;53.614;9.894;2023-05-10T05:08:30;6.88;;;3.78;;
21780;SDS011;52576;53.614;9.894;2023-05-10T05:10:33;7.10;;;3.78;;
21780;SDS011;52576;53.614;9.894;2023-05-10T05:12:36;6.55;;;4.35;;
21780;SDS011;52576;53.614;9.894;2023-05-10T05:14:40;8.45;;;4.18;;
21780;SDS011;52576;53.614;9.894;2023-05-10T05:16:43;10.85;;;4.03;;
21780;SDS011;52576;53.614;9.894;2023-05-10T05:18:46;7.78;;;4.05;;
21780;SDS011;52576;53.614;9.894;2023-05-10T05:20:50;7.63;;;3.90;;
21780;SDS011;52576;53.614;9.894;2023-05-10T05:22:55;9.90;;;4.00;;
21780;SDS011;52576;53.614;9.894;2023-05-10T05:24:58;6.60;;;3.90;;
21780;SDS011;52576;53.614;9.894;2023-05-10T05:27:02;7.72;;;4.18;;
21780;SDS011;52576;53.614;9.894;2023-05-10T05:29:05;6.68;;;4.20;;
21780;SDS011;52576;53.614;9.894;2023-05-10T05:31:08;7.63;;;4.00;;
21780;SDS011;52576;53.614;9.894;2023-05-10T05:33:12;9.85;;;4.18;;
21780;SDS011;52576;53.614;9.894;2023-05-10T05:35:17;7.43;;;4.10;;
21780;SDS011;52576;53.614;9.894;2023-05-10T05:37:20;9.65;;;4.38;;
21780;SDS011;52576;53.614;9.894;2023-05-10T05:39:25;7.22;;;4.82;;
21780;SDS011;52576;53.614;9.894;2023-05-10T05:41:28;8.45;;;4.13;;
21780;SDS011;52576;53.614;9.894;2023-05-10T05:43:31;12.15;;;4.80;;
21780;SDS011;52576;53.614;9.894;2023-05-10T05:45:38;7.25;;;4.10;;
21780;SDS011;52576;53.614;9.894;2023-05-10T05:47:41;9.48;;;4.13;;
21780;SDS011;52576;53.614;9.894;2023-05-10T05:49:45;6.07;;;4.20;;
21780;SDS011;52576;53.614;9.894;2023-05-10T05:51:48;11.02;;;4.20;;
21780;SDS011;52576;53.614;9.894;2023-05-10T05:53:52;9.48;;;4.00;;
21780;SDS011;52576;53.614;9.894;2023-05-10T05:55:57;11.98;;;4.10;;
21780;SDS011;52576;53.614;9.894;2023-05-10T05:58:01;12.18;;;5.85;;
21780;SDS011;52576;53.614;9.894;2023-05-10T06:00:05;6.38;;;4.13;;
21780;SDS011;52576;53.614;9.894;2023-05-10T06:02:15;12.02;;;4.53;;
21780;SDS011;52576;53.614;9.894;2023-05-10T06:04:18;7.97;;;4.10;;
21780;SDS011;52576;53.614;9.894;2023-05-10T06:06:22;8.05;;;3.75;;
21780;SDS011;52576;53.614;9.894;2023-05-10T06:08:25;9.32;;;4.25;;
21780;SDS011;52576;53.614;9.894;2023-05-10T06:10:28;8.80;;;5.13;;
21780;SDS011;52576;53.614;9.894;2023-05-10T06:12:33;9.00;;;4.05;;
21780;SDS011;52576;53.614;9.894;2023-05-10T06:14:36;7.35;;;4.30;;
21780;SDS011;52576;53.614;9.894;2023-05-10T06:16:40;10.23;;;4.88;;
21780;SDS011;52576;53.614;9.894;2023-05-10T06:18:43;10.40;;;4.35;;
21780;SDS011;52576;53.614;9.894;2023-05-10T06:20:46;9.77;;;4.28;;
21780;SDS011;52576;53.614;9.894;2023-05-10T06:22:49;9.80;;;4.72;;
21780;SDS011;52576;53.614;9.894;2023-05-10T06:24:53;6.38;;;4.10;;
21780;SDS011;52576;53.614;9.894;2023-05-10T06:26:56;11.13;;;4.32;;
21780;SDS011;52576;53.614;9.894;2023-05-10T06:29:03;7.57;;;3.92;;
21780;SDS011;52576;53.614;9.894;2023-05-10T06:31:06;8.60;;;4.05;;
21780;SDS011;52576;53.614;9.894;2023-05-10T06:33:10;9.27;;;4.45;;
21780;SDS011;52576;53.614;9.894;2023-05-10T06:35:13;10.15;;;5.05;;
21780;SDS011;52576;53.614;9.894;2023-05-10T06:37:17;6.28;;;4.47;;
21780;SDS011;52576;53.614;9.894;2023-05-10T06:39:20;7.32;;;4.15;;
21780;SDS011;52576;53.614;9.894;2023-05-10T06:41:23;7.93;;;4.10;;
21780;SDS011;52576;53.614;9.894;2023-05-10T06:43:27;9.05;;;4.22;;
21780;SDS011;52576;53.614;9.894;2023-05-10T06:45:32;11.55;;;4.30;;
21780;SDS011;52576;53.614;9.894;2023-05-10T06:47:35;8.55;;;4.03;;
21780;SDS011;52576;53.614;9.894;2023-05-10T06:49:40;10.93;;;4.30;;
21780;SDS011;52576;53.614;9.894;2023-05-10T06:51:43;9.63;;;4.47;;
21780;SDS011;52576;53.614;9.894;2023-05-10T06:53:46;14.43;;;4.13;;
21780;SDS011;52576;53.614;9.894;2023-05-10T06:55:49;8.52;;;3.90;;
21780;SDS011;52576;53.614;9.894;2023-05-10T06:57:53;7.60;;;4.25;;
21780;SDS011;52576;53.614;9.894;2023-05-10T06:59:56;12.18;;;4.07;;
21780;SDS011;52576;53.614;9.894;2023-05-10T07:02:01;9.48;;;4.18;;
21780;SDS011;52576;53.614;9.894;2023-05-10T07:04:04;8.13;;;4.07;;
21780;SDS011;52576;53.614;9.894;2023-05-10T07:06:09;10.80;;;4.47;;
21780;SDS011;52576;53.614;9.894;2023-05-10T07:08:31;7.97;;;4.45;;
21780;SDS011;52576;53.614;9.894;2023-05-10T07:10:34;12.10;;;4.50;;
21780;SDS011;52576;53.614;9.894;2023-05-10T07:12:38;7.20;;;3.90;;
21780;SDS011;52576;53.614;9.894;2023-05-10T07:14:41;7.60;;;4.00;;
21780;SDS011;52576;53.614;9.894;2023-05-10T07:16:45;6.03;;;3.97;;
21780;SDS011;52576;53.614;9.894;2023-05-10T07:18:50;10.88;;;4.72;;
21780;SDS011;52576;53.614;9.894;2023-05-10T07:20:54;7.63;;;4.18;;
21780;SDS011;52576;53.614;9.894;2023-05-10T07:22:57;6.75;;;4.13;;
21780;SDS011;52576;53.614;9.894;2023-05-10T07:25:01;12.13;;;4.30;;
21780;SDS011;52576;53.614;9.894;2023-05-10T07:27:04;8.90;;;4.15;;
21780;SDS011;52576;53.614;9.894;2023-05-10T07:29:07;15.48;;;4.40;;
21780;SDS011;52576;53.614;9.894;2023-05-10T07:31:11;9.70;;;4.20;;
21780;SDS011;52576;53.614;9.894;2023-05-10T07:33:14;10.38;;;4.85;;
21780;SDS011;52576;53.614;9.894;2023-05-10T07:35:19;6.95;;;3.92;;
21780;SDS011;52576;53.614;9.894;2023-05-10T07:37:23;8.00;;;4.15;;
21780;SDS011;52576;53.614;9.894;2023-05-10T07:39:26;8.98;;;4.75;;
21780;SDS011;52576;53.614;9.894;2023-05-10T07:41:29;7.15;;;4.05;;
21780;SDS011;52576;53.614;9.894;2023-05-10T07:43:34;6.85;;;3.92;;
21780;SDS011;52576;53.614;9.894;2023-05-10T07:45:37;5.93;;;3.47;;
21780;SDS011;52576;53.614;9.894;2023-05-10T07:47:40;5.28;;;3.85;;
21780;SDS011;52576;53.614;9.894;2023-05-10T07:49:44;10.82;;;4.40;;
21780;SDS011;52576;53.614;9.894;2023-05-10T07:51:48;6.60;;;4.30;;
21780;SDS011;52576;53.614;9.894;2023-05-10T07:53:51;10.38;;;4.03;;
21780;SDS011;52576;53.614;9.894;2023-05-10T07:55:57;8.18;;;5.60;;
21780;SDS011;52576;53.614;9.894;2023-05-10T07:58:01;8.73;;;3.97;;
21780;SDS011;52576;53.614;9.894;2023-05-10T08:00:05;7.75;;;3.78;;
21780;SDS011;52576;53.614;9.894;2023-05-10T08:02:15;7.38;;;3.92;;
21780;SDS011;52576;53.614;9.894;2023-05-10T08:04:18;10.43;;;3.95;;
21780;SDS011;52576;53.614;9.894;2023-05-10T08:06:21;9.30;;;3.60;;
21780;SDS011;52576;53.614;9.894;2023-05-10T08:08:26;8.80;;;3.83;;
21780;SDS011;52576;53.614;9.894;2023-05-10T08:10:29;9.05;;;4.10;;
21780;SDS011;52576;53.614;9.894;2023-05-10T08:12:32;7.43;;;3.85;;
21780;SDS011;52576;53.614;9.894;2023-05-10T08:14:36;8.25;;;3.90;;
21780;SDS011;52576;53.614;9.894;2023-05-10T08:16:39;9.43;;;4.10;;
21780;SDS011;52576;53.614;9.894;2023-05-10T08:18:43;6.75;;;3.70;;
21780;SDS011;52576;53.614;9.894;2023-05-10T08:20:48;11.55;;;3.90;;
21780;SDS011;52576;53.614;9.894;2023-05-10T08:22:51;6.95;;;3.95;;
21780;SDS011;52576;53.614;9.894;2023-05-10T08:24:56;6.80;;;3.58;;
21780;SDS011;52576;53.614;9.894;2023-05-10T08:26:59;8.57;;;4.20;;
21780;SDS011;52576;53.614;9.894;2023-05-10T08:29:03;9.25;;;4.40;;
21780;SDS011;52576;53.614;9.894;2023-05-10T08:31:06;13.27;;;4.13;;
21780;SDS011;52576;53.614;9.894;2023-05-10T08:33:09;9.95;;;4.10;;
21780;SDS011;52576;53.614;9.894;2023-05-10T08:35:13;9.68;;;4.13;;
21780;SDS011;52576;53.614;9.894;2023-05-10T08:37:16;11.57;;;4.10;;
21780;SDS011;52576;53.614;9.894;2023-05-10T08:39:19;10.02;;;4.13;;
21780;SDS011;52576;53.614;9.894;2023-05-10T08:43:37;9.35;;;3.80;;
21780;SDS011;52576;53.614;9.894;2023-05-10T08:45:43;8.40;;;4.10;;
21780;SDS011;52576;53.614;9.894;2023-05-10T08:47:48;10.85;;;4.22;;
21780;SDS011;52576;53.614;9.894;2023-05-10T08:49:52;7.57;;;4.30;;
21780;SDS011;52576;53.614;9.894;2023-05-10T08:51:57;8.23;;;4.57;;
21780;SDS011;52576;53.614;9.894;2023-05-10T08:54:02;9.75;;;4.40;;
21780;SDS011;52576;53.614;9.894;2023-05-10T08:56:07;8.93;;;4.25;;
21780;SDS011;52576;53.614;9.894;2023-05-10T08:58:12;8.45;;;4.18;;
21780;SDS011;52576;53.614;9.894;2023-05-10T09:00:16;9.05;;;4.30;;
21780;SDS011;52576;53.614;9.894;2023-05-10T09:02:21;8.43;;;4.13;;
21780;SDS011;52576;53.614;9.894;2023-05-10T09:04:26;6.88;;;3.88;;
21780;SDS011;52576;53.614;9.894;2023-05-10T09:06:30;8.25;;;4.03;;
21780;SDS011;52576;53.614;9.894;2023-05-10T09:08:33;11.02;;;4.00;;
21780;SDS011;52576;53.614;9.894;2023-05-10T09:10:39;13.13;;;5.00;;
21780;SDS011;52576;53.614;9.894;2023-05-10T09:12:43;9.68;;;4.28;;
21780;SDS011;52576;53.614;9.894;2023-05-10T09:14:49;7.45;;;4.05;;
21780;SDS011;52576;53.614;9.894;2023-05-10T09:16:55;8.23;;;4.20;;
21780;SDS011;52576;53.614;9.894;2023-05-10T09:18:59;11.07;;;4.60;;
21780;SDS011;52576;53.614;9.894;2023-05-10T09:21:02;7.75;;;4.07;;
21780;SDS011;52576;53.614;9.894;2023-05-10T09:23:11;8.50;;;4.55;;
21780;SDS011;52576;53.614;9.894;2023-05-10T09:25:15;8.00;;;4.40;;
21780;SDS011;52576;53.614;9.894;2023-05-10T09:27:26;9.57;;;4.18;;
21780;SDS011;52576;53.614;9.894;2023-05-10T09:29:38;6.90;;;5.03;;
21780;SDS011;52576;53.614;9.894;2023-05-10T09:31:47;6.65;;;4.60;;
21780;SDS011;52576;53.614;9.894;2023-05-10T09:33:52;11.13;;;4.93;;
21780;SDS011;52576;53.614;9.894;2023-05-10T09:36:05;7.32;;;4.88;;
21780;SDS011;52576;53.614;9.894;2023-05-10T09:38:09;8.65;;;4.65;;
21780;SDS011;52576;53.614;9.894;2023-05-10T09:40:13;8.60;;;4.60;;
21780;SDS011;52576;53.614;9.894;2023-05-10T09:42:18;8.95;;;5.18;;
21780;SDS011;52576;53.614;9.894;2023-05-10T09:44:21;10.77;;;5.05;;
21780;SDS011;52576;53.614;9.894;2023-05-10T09:46:24;9.25;;;4.78;;
21780;SDS011;52576;53.614;9.894;2023-05-10T09:48:29;8.32;;;4.95;;
21780;SDS011;52576;53.614;9.894;2023-05-10T09:50:32;8.63;;;5.15;;
21780;SDS011;52576;53.614;9.894;2023-05-10T09:52:45;13.43;;;7.20;;
21780;SDS011;52576;53.614;9.894;2023-05-10T09:54:52;13.95;;;5.35;;
21780;SDS011;52576;53.614;9.894;2023-05-10T09:56:56;12.65;;;6.38;;
21780;SDS011;52576;53.614;9.894;2023-05-10T09:59:01;9.85;;;5.78;;
21780;SDS011;52576;53.614;9.894;2023-05-10T10:01:05;8.02;;;5.43;;
21780;SDS011;52576;53.614;9.894;2023-05-10T10:03:14;10.82;;;5.75;;
21780;SDS011;52576;53.614;9.894;2023-05-10T10:05:20;9.40;;;5.50;;
21780;SDS011;52576;53.614;9.894;2023-05-10T10:07:23;9.00;;;5.90;;
21780;SDS011;52576;53.614;9.894;2023-05-10T10:09:27;9.68;;;5.30;;
21780;SDS011;52576;53.614;9.894;2023-05-10T10:11:31;10.82;;;6.20;;
21780;SDS011;52576;53.614;9.894;2023-05-10T10:13:35;9.52;;;5.78;;
21780;SDS011;52576;53.614;9.894;2023-05-10T10:15:38;9.00;;;6.05;;
21780;SDS011;52576;53.614;9.894;2023-05-10T10:17:41;13.98;;;6.13;;
21780;SDS011;52576;53.614;9.894;2023-05-10T10:19:46;11.38;;;6.05;;
21780;SDS011;52576;53.614;9.894;2023-05-10T10:21:52;10.18;;;6.10;;
21780;SDS011;52576;53.614;9.894;2023-05-10T10:23:55;10.93;;;5.85;;
21780;SDS011;52576;53.614;9.894;2023-05-10T10:25:58;8.48;;;6.07;;
21780;SDS011;52576;53.614;9.894;2023-05-10T10:28:06;13.43;;;6.63;;
21780;SDS011;52576;53.614;9.894;2023-05-10T10:30:21;8.73;;;6.28;;
21780;SDS011;52576;53.614;9.894;2023-05-10T10:32:30;8.88;;;6.38;;
21780;SDS011;52576;53.614;9.894;2023-05-10T10:34:43;8.25;;;6.20;;
21780;SDS011;52576;53.614;9.894;2023-05-10T10:36:46;14.52;;;7.13;;
21780;SDS011;52576;53.614;9.894;2023-05-10T10:39:00;8.93;;;6.72;;
21780;SDS011;52576;53.614;9.894;2023-05-10T10:41:09;11.52;;;7.00;;
21780;SDS011;52576;53.614;9.894;2023-05-10T10:43:22;11.52;;;6.40;;
21780;SDS011;52576;53.614;9.894;2023-05-10T10:45:27;11.10;;;6.75;;
21780;SDS011;52576;53.614;9.894;2023-05-10T10:47:30;12.07;;;7.18;;
21780;SDS011;52576;53.614;9.894;2023-05-10T10:49:37;13.50;;;7.55;;
21780;SDS011;52576;53.614;9.894;2023-05-10T10:54:18;12.00;;;7.53;;
21780;SDS011;52576;53.614;9.894;2023-05-10T10:56:30;11.15;;;7.28;;
21780;SDS011;52576;53.614;9.894;2023-05-10T10:58:36;12.25;;;7.60;;
21780;SDS011;52576;53.614;9.894;2023-05-10T11:00:40;10.55;;;7.65;;
21780;SDS011;52576;53.614;9.894;2023-05-10T11:02:43;10.85;;;7.75;;
21780;SDS011;52576;53.614;9.894;2023-05-10T11:04:50;11.38;;;7.70;;
21780;SDS011;52576;53.614;9.894;2023-05-10T11:06:53;9.77;;;7.43;;
21780;SDS011;52576;53.614;9.894;2023-05-10T11:09:21;11.50;;;7.68;;
21780;SDS011;52576;53.614;9.894;2023-05-10T11:11:27;11.80;;;6.90;;
21780;SDS011;52576;53.614;9.894;2023-05-10T11:13:32;10.23;;;7.63;;
21780;SDS011;52576;53.614;9.894;2023-05-10T11:15:36;9.93;;;7.25;;
21780;SDS011;52576;53.614;9.894;2023-05-10T11:17:40;16.75;;;7.80;;
21780;SDS011;52576;53.614;9.894;2023-05-10T11:22:12;9.70;;;7.18;;
21780;SDS011;52576;53.614;9.894;2023-05-10T11:24:17;10.80;;;8.02;;
21780;SDS011;52576;53.614;9.894;2023-05-10T11:26:22;12.45;;;8.10;;
21780;SDS011;52576;53.614;9.894;2023-05-10T11:28:27;12.82;;;7.82;;
21780;SDS011;52576;53.614;9.894;2023-05-10T11:30:30;11.10;;;7.78;;
21780;SDS011;52576;53.614;9.894;2023-05-10T11:32:34;10.88;;;7.72;;
21780;SDS011;52576;53.614;9.894;2023-05-10T11:34:40;12.30;;;7.80;;
21780;SDS011;52576;53.614;9.894;2023-05-10T11:36:43;11.00;;;7.38;;
21780;SDS011;52576;53.614;9.894;2023-05-10T11:38:47;12.50;;;8.10;;
21780;SDS011;52576;53.614;9.894;2023-05-10T11:40:51;9.38;;;7.80;;
21780;SDS011;52576;53.614;9.894;2023-05-10T11:42:57;11.07;;;7.55;;
21780;SDS011;52576;53.614;9.894;2023-05-10T11:45:00;13.93;;;7.93;;
21780;SDS011;52576;53.614;9.894;2023-05-10T11:47:04;10.95;;;8.38;;
21780;SDS011;52576;53.614;9.894;2023-05-10T11:49:08;14.40;;;8.32;;
21780;SDS011;52576;53.614;9.894;2023-05-10T11:51:11;14.98;;;9.10;;
21780;SDS011;52576;53.614;9.894;2023-05-10T11:53:15;12.68;;;8.75;;
21780;SDS011;52576;53.614;9.894;2023-05-10T11:55:18;9.85;;;8.30;;
21780;SDS011;52576;53.614;9.894;2023-05-10T11:57:25;10.13;;;8.32;;
21780;SDS011;52576;53.614;9.894;2023-05-10T11:59:31;12.82;;;9.30;;
21780;SDS011;52576;53.614;9.894;2023-05-10T12:01:34;12.25;;;8.60;;
21780;SDS011;52576;53.614;9.894;2023-05-10T12:03:41;14.00;;;8.30;;
21780;SDS011;52576;53.614;9.894;2023-05-10T12:05:45;11.13;;;8.63;;
21780;SDS011;52576;53.614;9.894;2023-05-10T12:07:48;19.20;;;8.93;;
21780;SDS011;52576;53.614;9.894;2023-05-10T12:10:07;11.88;;;9.23;;
21780;SDS011;52576;53.614;9.894;2023-05-10T12:14:19;10.38;;;8.45;;
21780;SDS011;52576;53.614;9.894;2023-05-10T12:16:26;10.30;;;7.78;;
21780;SDS011;52576;53.614;9.894;2023-05-10T12:18:32;10.85;;;7.03;;
21780;SDS011;52576;53.614;9.894;2023-05-10T12:20:36;9.57;;;6.95;;
21780;SDS011;52576;53.614;9.894;2023-05-10T12:22:40;10.88;;;7.38;;
21780;SDS011;52576;53.614;9.894;2023-05-10T12:24:45;8.52;;;7.15;;
21780;SDS011;52576;53.614;9.894;2023-05-10T12:26:48;8.40;;;7.28;;
21780;SDS011;52576;53.614;9.894;2023-05-10T12:28:53;10.93;;;7.97;;
21780;SDS011;52576;53.614;9.894;2023-05-10T12:30:56;9.20;;;7.65;;
21780;SDS011;52576;53.614;9.894;2023-05-10T12:33:02;12.32;;;8.10;;
21780;SDS011;52576;53.614;9.894;2023-05-10T12:35:13;15.27;;;7.75;;
21780;SDS011;52576;53.614;9.894;2023-05-10T12:37:16;9.40;;;6.70;;
21780;SDS011;52576;53.614;9.894;2023-05-10T12:39:20;12.65;;;6.80;;
21780;SDS011;52576;53.614;9.894;2023-05-10T12:41:23;9.60;;;6.78;;
21780;SDS011;52576;53.614;9.894;2023-05-10T12:43:26;9.77;;;7.32;;
21780;SDS011;52576;53.614;9.894;2023-05-10T12:45:30;9.55;;;6.78;;
21780;SDS011;52576;53.614;9.894;2023-05-10T12:47:33;9.68;;;6.78;;